South Fork Dry Sac River (Missouri), Springfield (06918493)

StateMissouriCurrentPotential (25 cfs)
RiverSouth Fork Dry Sac RiverFlood - The river is flooding. Obstacles can be treacherous or deadly. The river should be avoided at this stage for casual trips and definitely for the inexperienced. Trips should be attempted only with protective gear and equipment.Flood(none)
Updated2019-10-13 19:15 (21 minutes ago)High - The river is high and potentially dangerous, especially for the young and / or inexperienced. Normal stream obstacles are sometimes difficult to navigate. Extended distances can be attempted, but canoe travel may not be advisable.High(none)
Discharge25 cfs (median: 5 cfs)Good - Conditions are ideal for a canoe or kayak. Boats typically will drag on fewer than one-quarter of riffles, if at all, and portages are unnecessary or rare. Normal float lengths can be attempted without a problem.Good(none)
Height1.53 feetLow - River is low but can still be floated. Some riffles are okay but most come with significant dragging and might need a portage. Float lengths should be reduced to accommodate low flow, dragging, and portages.Low(none)
TrendSteady (falling over 24 hours)Poor - River is too low to float comfortably. Most or all riffles will drag or must be portaged and some obstacles (such as slick shelf rock) cause undue problems. Avoid the river at this stage for casual paddling trips.Poor(none)
USGSExternal icon USGS Site for Springfield (06918493)LocationExternal icon Google Maps

Trending Data

Plot Image
ObservationHeightDischargeMaximum
Discharge
Minimum
Discharge
Mean
Discharge
P05P10P20P25P50
(Median)
P75P80P90P95
2019-10-13 19:15 1.53 25 94 (2015) 1 (2009) 13 1 1 2 2 5 9 12 49 94
2019-10-13 18:15 1.53 25 94 (2015) 1 (2009) 13 1 1 2 2 5 9 12 49 94
2019-10-13 17:15 1.54 26 94 (2015) 1 (2009) 13 1 1 2 2 5 9 12 49 94
2019-10-13 16:15 1.54 26 94 (2015) 1 (2009) 13 1 1 2 2 5 9 12 49 94
2019-10-13 15:15 1.54 26 94 (2015) 1 (2009) 13 1 1 2 2 5 9 12 49 94
2019-10-13 14:15 1.55 27 94 (2015) 1 (2009) 13 1 1 2 2 5 9 12 49 94
2019-10-13 13:15 1.55 27 94 (2015) 1 (2009) 13 1 1 2 2 5 9 12 49 94
2019-10-13 12:15 1.56 27 94 (2015) 1 (2009) 13 1 1 2 2 5 9 12 49 94
2019-10-13 11:15 1.56 27 94 (2015) 1 (2009) 13 1 1 2 2 5 9 12 49 94
2019-10-13 10:15 1.57 28 94 (2015) 1 (2009) 13 1 1 2 2 5 9 12 49 94
2019-10-13 09:15 1.57 28 94 (2015) 1 (2009) 13 1 1 2 2 5 9 12 49 94
2019-10-13 08:15 1.58 28 94 (2015) 1 (2009) 13 1 1 2 2 5 9 12 49 94
2019-10-13 07:15 1.58 28 94 (2015) 1 (2009) 13 1 1 2 2 5 9 12 49 94
2019-10-13 06:15 1.59 29 94 (2015) 1 (2009) 13 1 1 2 2 5 9 12 49 94
2019-10-13 05:15 1.59 29 94 (2015) 1 (2009) 13 1 1 2 2 5 9 12 49 94
2019-10-13 04:15 1.60 30 94 (2015) 1 (2009) 13 1 1 2 2 5 9 12 49 94
2019-10-13 03:15 1.60 30 94 (2015) 1 (2009) 13 1 1 2 2 5 9 12 49 94
2019-10-13 02:15 1.61 30 94 (2015) 1 (2009) 13 1 1 2 2 5 9 12 49 94
2019-10-13 01:15 1.62 31 94 (2015) 1 (2009) 13 1 1 2 2 5 9 12 49 94
2019-10-13 00:15 1.62 31 94 (2015) 1 (2009) 13 1 1 2 2 5 9 12 49 94
2019-10-12 23:15 1.63 32 54 (2010) 1 (2001) 10 1 2 3 3 6 9 9 40 54
2019-10-12 22:15 1.64 32 54 (2010) 1 (2001) 10 1 2 3 3 6 9 9 40 54
2019-10-12 21:15 1.65 33 54 (2010) 1 (2001) 10 1 2 3 3 6 9 9 40 54
2019-10-12 20:15 1.65 33 54 (2010) 1 (2001) 10 1 2 3 3 6 9 9 40 54
2019-10-12 19:15 1.66 33 54 (2010) 1 (2001) 10 1 2 3 3 6 9 9 40 54
2019-10-12 18:15 1.67 34 54 (2010) 1 (2001) 10 1 2 3 3 6 9 9 40 54
2019-10-12 17:15 1.68 35 54 (2010) 1 (2001) 10 1 2 3 3 6 9 9 40 54
2019-10-12 16:15 1.68 35 54 (2010) 1 (2001) 10 1 2 3 3 6 9 9 40 54
2019-10-12 15:15 1.69 35 54 (2010) 1 (2001) 10 1 2 3 3 6 9 9 40 54
2019-10-12 14:15 1.70 36 54 (2010) 1 (2001) 10 1 2 3 3 6 9 9 40 54
2019-10-12 13:15 1.70 36 54 (2010) 1 (2001) 10 1 2 3 3 6 9 9 40 54
2019-10-12 12:15 1.71 37 54 (2010) 1 (2001) 10 1 2 3 3 6 9 9 40 54
2019-10-12 11:15 1.72 38 54 (2010) 1 (2001) 10 1 2 3 3 6 9 9 40 54
2019-10-12 10:15 1.73 38 54 (2010) 1 (2001) 10 1 2 3 3 6 9 9 40 54
2019-10-12 09:15 1.74 39 54 (2010) 1 (2001) 10 1 2 3 3 6 9 9 40 54
2019-10-12 08:15 1.74 39 54 (2010) 1 (2001) 10 1 2 3 3 6 9 9 40 54
2019-10-12 07:15 1.75 40 54 (2010) 1 (2001) 10 1 2 3 3 6 9 9 40 54
2019-10-12 06:15 1.76 40 54 (2010) 1 (2001) 10 1 2 3 3 6 9 9 40 54
2019-10-12 05:15 1.77 41 54 (2010) 1 (2001) 10 1 2 3 3 6 9 9 40 54
2019-10-12 04:15 1.78 42 54 (2010) 1 (2001) 10 1 2 3 3 6 9 9 40 54
2019-10-12 03:15 1.79 43 54 (2010) 1 (2001) 10 1 2 3 3 6 9 9 40 54
2019-10-12 02:15 1.80 43 54 (2010) 1 (2001) 10 1 2 3 3 6 9 9 40 54
2019-10-12 01:15 1.81 44 54 (2010) 1 (2001) 10 1 2 3 3 6 9 9 40 54
2019-10-12 00:15 1.82 45 54 (2010) 1 (2001) 10 1 2 3 3 6 9 9 40 54
2019-10-11 23:15 1.84 46 74 (2010) 1 (2001) 12 1 1 2 3 4 9 11 56 74
2019-10-11 22:15 1.85 47 74 (2010) 1 (2001) 12 1 1 2 3 4 9 11 56 74
2019-10-11 21:15 1.86 48 74 (2010) 1 (2001) 12 1 1 2 3 4 9 11 56 74
2019-10-11 20:15 1.88 50 74 (2010) 1 (2001) 12 1 1 2 3 4 9 11 56 74
2019-10-11 19:15 1.89 50 74 (2010) 1 (2001) 12 1 1 2 3 4 9 11 56 74
2019-10-11 18:15 1.90 51 74 (2010) 1 (2001) 12 1 1 2 3 4 9 11 56 74
2019-10-11 17:15 1.92 53 74 (2010) 1 (2001) 12 1 1 2 3 4 9 11 56 74
2019-10-11 16:15 1.95 55 74 (2010) 1 (2001) 12 1 1 2 3 4 9 11 56 74
2019-10-11 15:15 1.97 57 74 (2010) 1 (2001) 12 1 1 2 3 4 9 11 56 74
2019-10-11 14:15 1.99 59 74 (2010) 1 (2001) 12 1 1 2 3 4 9 11 56 74
2019-10-11 13:15 2.02 62 74 (2010) 1 (2001) 12 1 1 2 3 4 9 11 56 74
2019-10-11 12:15 2.06 65 74 (2010) 1 (2001) 12 1 1 2 3 4 9 11 56 74
2019-10-11 11:15 2.12 71 74 (2010) 1 (2001) 12 1 1 2 3 4 9 11 56 74
2019-10-11 10:15 2.20 79 74 (2010) 1 (2001) 12 1 1 2 3 4 9 11 56 74
2019-10-11 09:15 2.31 91 74 (2010) 1 (2001) 12 1 1 2 3 4 9 11 56 74
2019-10-11 08:15 2.44 106 74 (2010) 1 (2001) 12 1 1 2 3 4 9 11 56 74
2019-10-11 07:15 2.48 111 74 (2010) 1 (2001) 12 1 1 2 3 4 9 11 56 74
2019-10-11 06:15 2.44 106 74 (2010) 1 (2001) 12 1 1 2 3 4 9 11 56 74
2019-10-11 05:15 2.57 123 74 (2010) 1 (2001) 12 1 1 2 3 4 9 11 56 74
2019-10-11 04:15 2.60 127 74 (2010) 1 (2001) 12 1 1 2 3 4 9 11 56 74
2019-10-11 03:15 2.31 91 74 (2010) 1 (2001) 12 1 1 2 3 4 9 11 56 74
2019-10-11 02:15 1.63 32 74 (2010) 1 (2001) 12 1 1 2 3 4 9 11 56 74
2019-10-11 01:15 1.56 27 74 (2010) 1 (2001) 12 1 1 2 3 4 9 11 56 74
2019-10-11 00:15 1.54 26 74 (2010) 1 (2001) 12 1 1 2 3 4 9 11 56 74
2019-10-10 23:15 1.49 23 155 (2015) 1 (2001) 19 1 1 2 3 4 8 13 116 155
2019-10-10 22:15 1.44 20 155 (2015) 1 (2001) 19 1 1 2 3 4 8 13 116 155
2019-10-10 21:15 1.48 22 155 (2015) 1 (2001) 19 1 1 2 3 4 8 13 116 155
2019-10-10 20:15 1.38 17 155 (2015) 1 (2001) 19 1 1 2 3 4 8 13 116 155
2019-10-10 19:15 1.37 17 155 (2015) 1 (2001) 19 1 1 2 3 4 8 13 116 155
2019-10-10 18:15 1.34 15 155 (2015) 1 (2001) 19 1 1 2 3 4 8 13 116 155
2019-10-10 17:15 1.32 15 155 (2015) 1 (2001) 19 1 1 2 3 4 8 13 116 155
2019-10-10 16:15 1.29 13 155 (2015) 1 (2001) 19 1 1 2 3 4 8 13 116 155
2019-10-10 15:15 1.30 14 155 (2015) 1 (2001) 19 1 1 2 3 4 8 13 116 155
2019-10-10 14:15 1.32 15 155 (2015) 1 (2001) 19 1 1 2 3 4 8 13 116 155
2019-10-10 13:15 1.25 12 155 (2015) 1 (2001) 19 1 1 2 3 4 8 13 116 155
2019-10-10 12:15 1.23 11 155 (2015) 1 (2001) 19 1 1 2 3 4 8 13 116 155
2019-10-10 11:15 1.23 11 155 (2015) 1 (2001) 19 1 1 2 3 4 8 13 116 155
2019-10-10 10:15 1.23 11 155 (2015) 1 (2001) 19 1 1 2 3 4 8 13 116 155
2019-10-10 09:15 1.23 11 155 (2015) 1 (2001) 19 1 1 2 3 4 8 13 116 155
2019-10-10 08:15 1.23 11 155 (2015) 1 (2001) 19 1 1 2 3 4 8 13 116 155
2019-10-10 07:15 1.23 11 155 (2015) 1 (2001) 19 1 1 2 3 4 8 13 116 155
2019-10-10 06:15 1.24 11 155 (2015) 1 (2001) 19 1 1 2 3 4 8 13 116 155
2019-10-10 05:15 1.25 12 155 (2015) 1 (2001) 19 1 1 2 3 4 8 13 116 155
2019-10-10 04:15 1.25 12 155 (2015) 1 (2001) 19 1 1 2 3 4 8 13 116 155
2019-10-10 03:15 1.24 11 155 (2015) 1 (2001) 19 1 1 2 3 4 8 13 116 155
2019-10-10 02:15 1.24 11 155 (2015) 1 (2001) 19 1 1 2 3 4 8 13 116 155
2019-10-10 01:15 1.25 12 155 (2015) 1 (2001) 19 1 1 2 3 4 8 13 116 155
2019-10-10 00:15 1.25 12 155 (2015) 1 (2001) 19 1 1 2 3 4 8 13 116 155
2019-10-09 23:15 1.25 12 732 (2010) 1 (2001) 43 1 2 3 3 4 8 8 16 732
2019-10-09 22:15 1.25 12 732 (2010) 1 (2001) 43 1 2 3 3 4 8 8 16 732
2019-10-09 21:15 1.25 12 732 (2010) 1 (2001) 43 1 2 3 3 4 8 8 16 732
2019-10-09 20:15 1.25 12 732 (2010) 1 (2001) 43 1 2 3 3 4 8 8 16 732
2019-10-09 19:15 1.25 12 732 (2010) 1 (2001) 43 1 2 3 3 4 8 8 16 732
2019-10-09 18:15 1.26 12 732 (2010) 1 (2001) 43 1 2 3 3 4 8 8 16 732
2019-10-09 17:15 1.26 12 732 (2010) 1 (2001) 43 1 2 3 3 4 8 8 16 732
2019-10-09 16:15 1.26 12 732 (2010) 1 (2001) 43 1 2 3 3 4 8 8 16 732
2019-10-09 15:15 1.26 12 732 (2010) 1 (2001) 43 1 2 3 3 4 8 8 16 732
2019-10-09 14:15 1.26 12 732 (2010) 1 (2001) 43 1 2 3 3 4 8 8 16 732
2019-10-09 13:15 1.27 12 732 (2010) 1 (2001) 43 1 2 3 3 4 8 8 16 732
2019-10-09 12:15 1.27 12 732 (2010) 1 (2001) 43 1 2 3 3 4 8 8 16 732
2019-10-09 11:15 1.27 12 732 (2010) 1 (2001) 43 1 2 3 3 4 8 8 16 732
2019-10-09 10:15 1.27 12 732 (2010) 1 (2001) 43 1 2 3 3 4 8 8 16 732
2019-10-09 09:15 1.28 13 732 (2010) 1 (2001) 43 1 2 3 3 4 8 8 16 732
2019-10-09 08:15 1.28 13 732 (2010) 1 (2001) 43 1 2 3 3 4 8 8 16 732
2019-10-09 07:15 1.28 13 732 (2010) 1 (2001) 43 1 2 3 3 4 8 8 16 732
2019-10-09 06:15 1.28 13 732 (2010) 1 (2001) 43 1 2 3 3 4 8 8 16 732
2019-10-09 05:15 1.28 13 732 (2010) 1 (2001) 43 1 2 3 3 4 8 8 16 732
2019-10-09 04:15 1.29 13 732 (2010) 1 (2001) 43 1 2 3 3 4 8 8 16 732
2019-10-09 03:15 1.29 13 732 (2010) 1 (2001) 43 1 2 3 3 4 8 8 16 732
2019-10-09 02:15 1.29 13 732 (2010) 1 (2001) 43 1 2 3 3 4 8 8 16 732
2019-10-09 01:15 1.30 14 732 (2010) 1 (2001) 43 1 2 3 3 4 8 8 16 732
2019-10-09 00:15 1.30 14 732 (2010) 1 (2001) 43 1 2 3 3 4 8 8 16 732
2019-10-08 23:15 1.30 14 514 (2010) 1 (2001) 32 1 1 3 3 4 6 8 22 514
2019-10-08 22:15 1.31 14 514 (2010) 1 (2001) 32 1 1 3 3 4 6 8 22 514
2019-10-08 21:15 1.31 14 514 (2010) 1 (2001) 32 1 1 3 3 4 6 8 22 514
2019-10-08 20:15 1.31 14 514 (2010) 1 (2001) 32 1 1 3 3 4 6 8 22 514
2019-10-08 19:15 1.32 15 514 (2010) 1 (2001) 32 1 1 3 3 4 6 8 22 514
2019-10-08 18:15 1.32 15 514 (2010) 1 (2001) 32 1 1 3 3 4 6 8 22 514
2019-10-08 17:15 1.33 15 514 (2010) 1 (2001) 32 1 1 3 3 4 6 8 22 514
2019-10-08 16:15 1.33 15 514 (2010) 1 (2001) 32 1 1 3 3 4 6 8 22 514
2019-10-08 15:15 1.34 15 514 (2010) 1 (2001) 32 1 1 3 3 4 6 8 22 514
2019-10-08 14:15 1.34 15 514 (2010) 1 (2001) 32 1 1 3 3 4 6 8 22 514
2019-10-08 13:15 1.35 16 514 (2010) 1 (2001) 32 1 1 3 3 4 6 8 22 514
2019-10-08 12:15 1.35 16 514 (2010) 1 (2001) 32 1 1 3 3 4 6 8 22 514
2019-10-08 11:15 1.36 16 514 (2010) 1 (2001) 32 1 1 3 3 4 6 8 22 514
2019-10-08 10:15 1.37 17 514 (2010) 1 (2001) 32 1 1 3 3 4 6 8 22 514
2019-10-08 09:15 1.37 17 514 (2010) 1 (2001) 32 1 1 3 3 4 6 8 22 514
2019-10-08 08:15 1.38 17 514 (2010) 1 (2001) 32 1 1 3 3 4 6 8 22 514
2019-10-08 07:15 1.38 17 514 (2010) 1 (2001) 32 1 1 3 3 4 6 8 22 514
2019-10-08 06:15 1.39 18 514 (2010) 1 (2001) 32 1 1 3 3 4 6 8 22 514
2019-10-08 05:15 1.39 18 514 (2010) 1 (2001) 32 1 1 3 3 4 6 8 22 514
2019-10-08 04:15 1.40 18 514 (2010) 1 (2001) 32 1 1 3 3 4 6 8 22 514
2019-10-08 03:15 1.40 18 514 (2010) 1 (2001) 32 1 1 3 3 4 6 8 22 514
2019-10-08 02:15 1.40 18 514 (2010) 1 (2001) 32 1 1 3 3 4 6 8 22 514
2019-10-08 01:15 1.41 19 514 (2010) 1 (2001) 32 1 1 3 3 4 6 8 22 514
2019-10-08 00:15 1.41 19 514 (2010) 1 (2001) 32 1 1 3 3 4 6 8 22 514
2019-10-07 23:15 1.42 19 28 (1999) 1 (2001) 6 1 1 3 3 4 6 9 12 28
2019-10-07 22:15 1.42 19 28 (1999) 1 (2001) 6 1 1 3 3 4 6 9 12 28
2019-10-07 21:15 1.42 19 28 (1999) 1 (2001) 6 1 1 3 3 4 6 9 12 28
2019-10-07 20:15 1.43 20 28 (1999) 1 (2001) 6 1 1 3 3 4 6 9 12 28
2019-10-07 19:15 1.43 20 28 (1999) 1 (2001) 6 1 1 3 3 4 6 9 12 28
2019-10-07 18:15 1.43 20 28 (1999) 1 (2001) 6 1 1 3 3 4 6 9 12 28
2019-10-07 17:15 1.44 20 28 (1999) 1 (2001) 6 1 1 3 3 4 6 9 12 28
2019-10-07 16:15 1.44 20 28 (1999) 1 (2001) 6 1 1 3 3 4 6 9 12 28
2019-10-07 15:15 1.44 20 28 (1999) 1 (2001) 6 1 1 3 3 4 6 9 12 28
2019-10-07 14:15 1.45 21 28 (1999) 1 (2001) 6 1 1 3 3 4 6 9 12 28
2019-10-07 13:15 1.45 21 28 (1999) 1 (2001) 6 1 1 3 3 4 6 9 12 28
2019-10-07 12:15 1.45 21 28 (1999) 1 (2001) 6 1 1 3 3 4 6 9 12 28
2019-10-07 11:15 1.46 21 28 (1999) 1 (2001) 6 1 1 3 3 4 6 9 12 28
2019-10-07 10:15 1.46 21 28 (1999) 1 (2001) 6 1 1 3 3 4 6 9 12 28
2019-10-07 09:15 1.46 21 28 (1999) 1 (2001) 6 1 1 3 3 4 6 9 12 28
2019-10-07 08:15 1.47 22 28 (1999) 1 (2001) 6 1 1 3 3 4 6 9 12 28
2019-10-07 07:15 1.47 22 28 (1999) 1 (2001) 6 1 1 3 3 4 6 9 12 28
2019-10-07 06:15 1.47 22 28 (1999) 1 (2001) 6 1 1 3 3 4 6 9 12 28
2019-10-07 05:15 1.48 22 28 (1999) 1 (2001) 6 1 1 3 3 4 6 9 12 28
2019-10-07 04:15 1.48 22 28 (1999) 1 (2001) 6 1 1 3 3 4 6 9 12 28
2019-10-07 03:15 1.48 22 28 (1999) 1 (2001) 6 1 1 3 3 4 6 9 12 28
2019-10-07 02:15 1.48 22 28 (1999) 1 (2001) 6 1 1 3 3 4 6 9 12 28
2019-10-07 01:15 1.49 23 28 (1999) 1 (2001) 6 1 1 3 3 4 6 9 12 28
2019-10-07 00:15 1.49 23 28 (1999) 1 (2001) 6 1 1 3 3 4 6 9 12 28
2019-10-06 23:15 1.49 23 49 (1999) 1 (2001) 7 1 1 3 3 5 6 9 11 49
2019-10-06 22:15 1.49 23 49 (1999) 1 (2001) 7 1 1 3 3 5 6 9 11 49
2019-10-06 21:15 1.49 23 49 (1999) 1 (2001) 7 1 1 3 3 5 6 9 11 49
2019-10-06 20:15 1.49 23 49 (1999) 1 (2001) 7 1 1 3 3 5 6 9 11 49
2019-10-06 19:15 1.49 23 49 (1999) 1 (2001) 7 1 1 3 3 5 6 9 11 49
2019-10-06 18:15 1.45 21 49 (1999) 1 (2001) 7 1 1 3 3 5 6 9 11 49
2019-10-06 17:15 1.39 18 49 (1999) 1 (2001) 7 1 1 3 3 5 6 9 11 49
2019-10-06 16:15 1.28 13 49 (1999) 1 (2001) 7 1 1 3 3 5 6 9 11 49
2019-10-06 15:15 1.24 11 49 (1999) 1 (2001) 7 1 1 3 3 5 6 9 11 49
2019-10-06 14:15 1.24 11 49 (1999) 1 (2001) 7 1 1 3 3 5 6 9 11 49
2019-10-06 13:15 1.24 11 49 (1999) 1 (2001) 7 1 1 3 3 5 6 9 11 49
2019-10-06 12:15 1.23 11 49 (1999) 1 (2001) 7 1 1 3 3 5 6 9 11 49
2019-10-06 11:15 1.22 11 49 (1999) 1 (2001) 7 1 1 3 3 5 6 9 11 49
2019-10-06 10:15 1.22 11 49 (1999) 1 (2001) 7 1 1 3 3 5 6 9 11 49
2019-10-06 09:15 1.22 11 49 (1999) 1 (2001) 7 1 1 3 3 5 6 9 11 49
2019-10-06 08:15 1.22 11 49 (1999) 1 (2001) 7 1 1 3 3 5 6 9 11 49
2019-10-06 07:15 1.22 11 49 (1999) 1 (2001) 7 1 1 3 3 5 6 9 11 49
2019-10-06 06:15 1.21 10 49 (1999) 1 (2001) 7 1 1 3 3 5 6 9 11 49
2019-10-06 05:15 1.21 10 49 (1999) 1 (2001) 7 1 1 3 3 5 6 9 11 49
2019-10-06 04:15 1.22 11 49 (1999) 1 (2001) 7 1 1 3 3 5 6 9 11 49
2019-10-06 03:15 1.19 9 49 (1999) 1 (2001) 7 1 1 3 3 5 6 9 11 49
2019-10-06 02:15 1.19 9 49 (1999) 1 (2001) 7 1 1 3 3 5 6 9 11 49
2019-10-06 01:15 1.21 10 49 (1999) 1 (2001) 7 1 1 3 3 5 6 9 11 49
2019-10-06 00:15 1.18 9 49 (1999) 1 (2001) 7 1 1 3 3 5 6 9 11 49

A total of 188 rows are displayed for years 1997 through 2018.

Trips for South Fork Dry Sac River (Missouri), Springfield (06918493)

DateStartEndDistanceConditionDischargeHeightFishingDetails

A total of 0 rows are displayed.

Condition Descriptions

Fishing Conditions

Fish Species

Notes

Classic Trip List

The classic River Trips application is still available for use. It is updated with the new system using a data retrofit. It is no longer maintained. The original River Trips application is no longer updated (as of 1 Dec 2016) but can be checked for errors or for the condition of the data before it was converted to the new system.